Time;durP1;ratioP1;P1;durP2;ratioP2;P2;SDS_P1;SDS_P2;PMS_P1;PMS_P2;Temp;Humidity;BMP_temperature;BMP_pressure;BME280_temperature;BME280_humidity;BME280_pressure;Samples;Min_cycle;Max_cycle;Signal;HPM_P1;HPM_P2
2022/05/18 00:02:23;;;;;;;7.27;3.60;;;;;;;18.23;46.33;99570.05;1746836;82;21209;-54
2022/05/18 00:04:50;;;;;;;7.33;3.50;;;;;;;18.31;45.85;99569.59;1748159;81;21175;-56
2022/05/18 00:07:17;;;;;;;5.27;2.87;;;;;;;18.40;45.84;99566.75;1748842;81;21938;-54
2022/05/18 00:09:44;;;;;;;6.07;3.43;;;;;;;18.41;46.44;99572.33;1748705;81;22185;-55
2022/05/18 00:12:12;;;;;;;6.93;3.37;;;;;;;18.52;46.35;99567.11;1749444;81;21186;-57
2022/05/18 00:14:39;;;;;;;4.83;2.80;;;;;;;18.58;46.46;99561.63;1736918;81;21373;-54
2022/05/18 00:17:07;;;;;;;10.40;3.20;;;;;;;18.55;46.78;99563.44;1749241;81;21304;-55
2022/05/18 00:19:34;;;;;;;5.57;2.53;;;;;;;18.60;46.86;99564.00;1749267;81;21286;-63
2022/05/18 00:22:01;;;;;;;6.13;2.73;;;;;;;18.41;47.63;99568.36;1749106;81;22341;-55
2022/05/18 00:24:28;;;;;;;5.27;2.83;;;;;;;18.34;47.80;99561.70;1749342;81;22574;-57
2022/05/18 00:26:56;;;;;;;4.57;2.70;;;;;;;18.44;47.86;99560.45;1749583;81;21639;-57
2022/05/18 00:29:23;;;;;;;8.80;3.10;;;;;;;18.60;47.42;99551.63;1749352;81;21212;-54
2022/05/18 00:31:50;;;;;;;5.77;2.33;;;;;;;18.73;46.84;99551.73;1749045;81;21258;-58
2022/05/18 00:34:17;;;;;;;5.87;2.60;;;;;;;18.60;46.85;99543.70;1749105;81;21273;-63
2022/05/18 00:36:45;;;;;;;5.63;2.80;;;;;;;18.44;46.73;99548.58;1749746;81;21119;-55
2022/05/18 00:39:12;;;;;;;5.53;2.67;;;;;;;18.36;46.63;99551.15;1749272;81;21174;-57
2022/05/18 00:41:40;;;;;;;9.07;3.33;;;;;;;18.37;46.37;99546.66;1738357;81;21273;-54
2022/05/18 00:44:08;;;;;;;5.93;3.23;;;;;;;18.28;46.38;99551.61;1748921;81;21852;-55
2022/05/18 00:46:37;;;;;;;5.40;2.87;;;;;;;18.15;46.78;99546.23;1749120;81;21701;-54
2022/05/18 00:49:06;;;;;;;6.63;3.57;;;;;;;18.19;46.78;99543.36;1750068;81;21013;-56
2022/05/18 00:51:42;;;;;;;7.10;3.97;;;;;;;18.09;47.03;99548.53;1750159;81;21352;-55
2022/05/18 00:54:15;;;;;;;6.83;3.83;;;;;;;18.00;47.24;99557.95;1749227;81;21134;-55
2022/05/18 00:56:55;;;;;;;9.03;4.37;;;;;;;17.94;47.29;99554.98;1739613;81;20958;-55
2022/05/18 00:59:29;;;;;;;6.97;3.65;;;;;;;17.71;47.78;99549.44;1746969;81;21501;-55
2022/05/18 01:02:00;;;;;;;7.67;3.60;;;;;;;17.64;47.79;99555.42;1749292;81;21001;-57
2022/05/18 01:04:27;;;;;;;7.20;3.37;;;;;;;17.56;48.41;99543.47;1749166;81;21382;-56
2022/05/18 01:07:10;;;;;;;6.50;3.58;;;;;;;17.54;48.31;99549.52;1747462;82;21049;-57
2022/05/18 01:09:43;;;;;;;7.97;3.40;;;;;;;17.38;48.51;99547.73;1718568;82;22413;-56
2022/05/18 01:12:15;;;;;;;7.85;3.65;;;;;;;17.51;48.34;99542.11;1747206;82;21009;-58
2022/05/18 01:14:55;;;;;;;6.20;3.40;;;;;;;17.76;47.76;99542.92;1737468;81;21487;-58
2022/05/18 01:17:31;;;;;;;8.00;3.97;;;;;;;17.90;47.17;99548.09;1747123;82;21497;-58
2022/05/18 01:20:00;;;;;;;8.13;3.60;;;;;;;17.99;46.98;99548.44;1747282;82;21910;-56
2022/05/18 01:22:58;;;;;;;6.03;3.27;;;;;;;18.26;46.29;99538.39;1747604;81;21167;-56
2022/05/18 01:26:00;;;;;;;6.50;3.47;;;;;;;18.34;45.92;99527.41;1747153;81;21589;-56
2022/05/18 01:28:35;;;;;;;4.83;3.00;;;;;;;18.44;45.01;99541.45;1747493;81;21026;-54
2022/05/18 01:31:04;;;;;;;7.37;4.03;;;;;;;18.37;44.57;99541.39;1746791;82;20867;-56
2022/05/18 01:33:32;;;;;;;7.67;3.80;;;;;;;18.29;44.64;99549.23;1747537;81;21069;-54
2022/05/18 01:36:00;;;;;;;6.45;3.27;;;;;;;18.19;44.99;99562.36;1747188;81;21424;-56
2022/05/18 01:38:27;;;;;;;5.97;2.83;;;;;;;18.16;45.11;99561.01;1747280;81;21449;-63
2022/05/18 01:41:06;;;;;;;6.85;3.42;;;;;;;18.25;45.28;99541.55;1746613;82;21487;-55
2022/05/18 01:43:54;;;;;;;7.37;3.70;;;;;;;18.31;45.56;99533.17;1746803;82;20907;-54
2022/05/18 01:46:21;;;;;;;7.50;3.85;;;;;;;18.32;45.68;99537.40;1747035;82;21295;-63
2022/05/18 01:48:52;;;;;;;7.70;3.80;;;;;;;18.35;45.62;99538.22;1747407;82;21243;-54
2022/05/18 01:51:32;;;;;;;6.55;3.47;;;;;;;18.15;46.46;99526.45;1747953;81;21011;-54
2022/05/18 01:53:59;;;;;;;9.80;3.87;;;;;;;18.22;46.83;99524.41;1747695;81;20977;-56
2022/05/18 01:56:27;;;;;;;14.93;6.60;;;;;;;18.36;46.63;99518.17;1746838;82;20985;-55
2022/05/18 01:58:54;;;;;;;22.37;7.97;;;;;;;18.18;46.23;99528.59;1747287;82;21283;-54
2022/05/18 02:01:22;;;;;;;21.60;9.97;;;;;;;17.98;46.43;99529.18;1747647;81;21552;-55
2022/05/18 02:03:49;;;;;;;20.10;9.97;;;;;;;18.01;46.26;99533.17;1747033;81;21110;-56
2022/05/18 02:06:16;;;;;;;23.47;11.20;;;;;;;18.05;46.15;99544.02;1749069;81;22212;-56
2022/05/18 02:08:43;;;;;;;19.90;9.90;;;;;;;18.07;46.06;99541.41;1749351;81;21333;-55
2022/05/18 02:11:16;;;;;;;21.63;10.30;;;;;;;18.03;46.14;99535.02;1749564;81;21362;-54
2022/05/18 02:13:43;;;;;;;20.53;9.57;;;;;;;18.00;46.44;99544.77;1737644;81;21842;-56
2022/05/18 02:16:11;;;;;;;19.80;9.75;;;;;;;17.99;46.74;99557.66;1749593;81;21706;-63
2022/05/18 02:18:38;;;;;;;16.53;7.60;;;;;;;17.97;46.71;99566.36;1748868;81;20983;-55
2022/05/18 02:21:08;;;;;;;19.73;9.33;;;;;;;18.04;47.01;99557.73;1750152;81;22262;-54
2022/05/18 02:23:37;;;;;;;21.60;10.80;;;;;;;18.01;47.42;99562.18;1749329;81;21229;-54
2022/05/18 02:26:11;;;;;;;17.53;8.30;;;;;;;18.11;47.88;99569.41;1749880;81;21285;-55
2022/05/18 02:28:40;;;;;;;11.70;6.37;;;;;;;18.07;48.42;99580.16;1748447;81;21769;-54
2022/05/18 02:31:08;;;;;;;16.50;7.60;;;;;;;18.09;48.52;99584.67;1748978;81;22033;-58
2022/05/18 02:33:37;;;;;;;13.10;7.05;;;;;;;18.09;48.85;99588.63;1748760;81;21269;-55
2022/05/18 02:36:07;;;;;;;18.43;8.23;;;;;;;18.09;49.32;99597.33;1749268;81;21018;-58
2022/05/18 02:38:35;;;;;;;18.10;8.97;;;;;;;18.09;49.58;99592.58;1749295;81;21564;-54
2022/05/18 02:41:03;;;;;;;24.20;11.40;;;;;;;18.05;50.22;99573.82;1749407;81;21251;-54
2022/05/18 02:43:31;;;;;;;25.40;13.07;;;;;;;17.87;51.48;99555.17;1748785;81;21260;-54
2022/05/18 02:46:16;;;;;;;28.30;13.60;;;;;;;17.95;51.47;99544.70;1749332;81;21485;-54
2022/05/18 02:48:43;;;;;;;29.07;12.77;;;;;;;17.87;51.17;99533.28;1745445;80;21532;-54
2022/05/18 02:51:12;;;;;;;21.00;10.77;;;;;;;17.85;51.57;99517.73;1749075;81;21255;-54
2022/05/18 02:53:40;;;;;;;20.13;10.23;;;;;;;17.88;50.64;99514.59;1742444;80;21723;-54
2022/05/18 02:56:11;;;;;;;23.20;11.37;;;;;;;17.89;50.40;99508.80;1748659;81;21142;-56
2022/05/18 02:58:44;;;;;;;22.95;10.15;;;;;;;17.90;49.80;99511.17;1751546;81;21197;-54
2022/05/18 03:01:14;;;;;;;21.52;10.93;;;;;;;18.11;48.47;99514.81;1748988;81;21065;-56
2022/05/18 03:03:44;;;;;;;16.95;9.70;;;;;;;18.19;47.91;99518.30;1748981;81;20986;-55
2022/05/18 03:06:13;;;;;;;22.47;10.77;;;;;;;18.32;47.41;99518.93;1748973;81;21492;-55
2022/05/18 03:08:42;;;;;;;17.43;9.83;;;;;;;18.31;47.15;99543.73;1743221;80;21361;-56
2022/05/18 03:11:09;;;;;;;18.97;10.27;;;;;;;18.37;46.85;99572.55;1748992;81;21260;-57
2022/05/18 03:13:36;;;;;;;17.63;8.50;;;;;;;18.39;46.48;99590.23;1748363;81;21411;-54
2022/05/18 03:16:06;;;;;;;26.63;11.03;;;;;;;18.05;48.45;99596.23;1749554;81;21296;-56
2022/05/18 03:18:33;;;;;;;23.80;11.17;;;;;;;18.18;48.82;99574.75;1749867;81;21327;-57
2022/05/18 03:23:46;;;;;;;21.67;12.07;;;;;;;18.19;50.10;99556.55;1749353;81;21229;-61
2022/05/18 03:26:16;;;;;;;25.37;11.30;;;;;;;18.32;49.74;99554.55;1749311;81;21741;-54
2022/05/18 03:28:46;;;;;;;22.20;11.10;;;;;;;18.58;49.77;99546.31;1748833;81;21240;-62
2022/05/18 03:31:16;;;;;;;26.15;11.30;;;;;;;18.78;49.34;99543.84;1749688;81;21708;-57
2022/05/18 03:33:43;;;;;;;23.67;11.60;;;;;;;19.07;49.37;99546.13;1749308;81;21089;-58
2022/05/18 03:36:12;;;;;;;22.43;11.07;;;;;;;19.46;48.76;99542.60;1749329;81;21262;-55
2022/05/18 03:38:40;;;;;;;20.00;10.00;;;;;;;19.53;48.63;99543.69;1737151;81;21237;-61
2022/05/18 03:41:08;;;;;;;19.87;10.30;;;;;;;19.71;48.03;99551.72;1749204;81;21885;-55
2022/05/18 03:43:36;;;;;;;19.70;10.50;;;;;;;19.72;48.30;99569.17;1749259;81;21389;-54
2022/05/18 03:46:05;;;;;;;17.07;10.47;;;;;;;19.98;47.68;99578.76;1748926;81;21242;-57
2022/05/18 03:48:34;;;;;;;22.42;10.38;;;;;;;20.00;47.16;99577.98;1748630;81;21331;-55
2022/05/18 03:51:02;;;;;;;21.70;10.57;;;;;;;20.10;46.04;99568.72;1749213;81;21362;-55
2022/05/18 03:53:30;;;;;;;25.57;12.07;;;;;;;20.10;46.04;99568.72;1749138;81;21471;-56
2022/05/18 03:55:57;;;;;;;24.83;13.90;;;;;;;19.86;46.41;99562.34;1748838;81;21141;-63
2022/05/18 03:58:24;;;;;;;26.40;12.47;;;;;;;19.86;46.41;99562.34;1749001;81;21576;-55
2022/05/18 04:00:53;;;;;;;23.13;12.13;;;;;;;19.71;47.46;99565.73;1748847;81;21731;-56
2022/05/18 04:03:24;;;;;;;24.27;12.27;;;;;;;19.71;47.46;99565.73;1749553;81;21924;-55
2022/05/18 04:05:52;;;;;;;25.97;12.58;;;;;;;19.86;48.02;99559.69;1749372;81;21210;-56
2022/05/18 04:08:19;;;;;;;30.00;14.43;;;;;;;19.84;49.11;99536.66;1748719;81;21483;-56
2022/05/18 04:10:47;;;;;;;28.83;15.17;;;;;;;19.84;48.83;99531.38;1748554;81;21727;-56
2022/05/18 04:13:18;;;;;;;32.73;16.10;;;;;;;19.84;48.83;99531.38;1749244;81;21384;-55
2022/05/18 04:15:46;;;;;;;34.30;17.75;;;;;;;19.87;49.39;99521.07;1727387;81;21901;-55
2022/05/18 04:18:13;;;;;;;47.23;24.03;;;;;;;19.87;48.85;99507.84;1748839;81;21201;-60
2022/05/18 04:20:40;;;;;;;60.13;32.97;;;;;;;19.87;48.85;99507.84;1736948;81;22266;-56
2022/05/18 04:23:10;;;;;;;67.13;38.20;;;;;;;20.00;46.49;99533.02;1748334;81;33720;-55
2022/05/18 04:25:39;;;;;;;74.73;40.07;;;;;;;20.00;46.49;99533.02;1749187;81;21645;-57
2022/05/18 04:28:07;;;;;;;85.73;45.93;;;;;;;20.03;46.73;99539.61;1749193;81;21878;-62
2022/05/18 04:30:34;;;;;;;99.80;53.07;;;;;;;20.34;45.24;99533.80;1748556;81;21659;-57
2022/05/18 04:33:04;;;;;;;113.50;61.47;;;;;;;20.34;45.24;99533.80;1749049;81;21740;-56
2022/05/18 04:35:31;;;;;;;117.37;65.60;;;;;;;20.36;45.44;99530.38;1749478;81;21465;-55
2022/05/18 04:37:58;;;;;;;139.47;75.63;;;;;;;20.48;44.42;99516.86;1749775;81;21291;-56
2022/05/18 04:40:25;;;;;;;158.17;88.77;;;;;;;20.48;44.42;99516.86;1749887;81;22105;-57
2022/05/18 04:42:52;;;;;;;186.23;101.17;;;;;;;20.49;44.45;99533.83;1749641;81;21449;-55
2022/05/18 04:45:21;;;;;;;204.80;111.00;;;;;;;20.49;44.45;99533.83;1749519;81;21692;-55
2022/05/18 04:47:49;;;;;;;220.27;121.43;;;;;;;20.61;44.55;99534.91;1749717;81;21612;-57
2022/05/18 04:50:16;;;;;;;202.40;109.30;;;;;;;20.71;44.02;99528.78;1749231;81;21637;-59
2022/05/18 04:52:44;;;;;;;221.13;120.90;;;;;;;20.71;44.02;99528.78;1748408;81;22185;-57
2022/05/18 04:55:12;;;;;;;222.40;116.63;;;;;;;20.77;44.04;99538.32;1749871;81;21661;-57
2022/05/18 04:57:40;;;;;;;213.80;117.57;;;;;;;20.95;43.81;99540.41;1755961;81;21612;-56
2022/05/18 05:00:11;;;;;;;212.53;118.90;;;;;;;21.09;43.58;99545.38;1749995;81;21613;-55
2022/05/18 05:02:40;;;;;;;208.43;116.50;;;;;;;21.23;43.00;99538.98;1737176;81;21532;-63
2022/05/18 05:05:09;;;;;;;204.63;116.37;;;;;;;21.22;42.64;99543.24;1749122;81;22252;-54
2022/05/18 05:07:37;;;;;;;198.07;114.23;;;;;;;21.36;42.07;99546.91;1749250;81;21654;-54
2022/05/18 05:10:07;;;;;;;248.43;136.47;;;;;;;21.57;41.47;99542.33;1749530;81;22114;-58
2022/05/18 05:12:36;;;;;;;268.55;143.45;;;;;;;21.68;41.42;99549.70;1748490;81;21625;-63
2022/05/18 05:15:04;;;;;;;273.30;153.87;;;;;;;21.98;41.14;99553.50;1748903;81;21494;-59
2022/05/18 05:17:31;;;;;;;274.27;153.23;;;;;;;22.10;40.58;99551.83;1749597;81;21357;-57
2022/05/18 05:19:59;;;;;;;262.47;142.83;;;;;;;22.21;40.23;99560.02;1748833;81;21324;-57
2022/05/18 05:22:27;;;;;;;271.90;145.17;;;;;;;22.33;39.95;99568.41;1748662;81;21623;-64
2022/05/18 05:24:54;;;;;;;256.27;137.30;;;;;;;22.39;40.01;99569.17;1748978;81;20947;-64
2022/05/18 05:27:22;;;;;;;260.60;140.27;;;;;;;22.49;39.97;99564.30;1749072;81;22399;-57
2022/05/18 05:29:49;;;;;;;244.43;135.87;;;;;;;22.49;39.97;99564.30;1748935;81;21646;-55
2022/05/18 05:32:16;;;;;;;237.43;131.83;;;;;;;22.69;39.17;99571.30;1749579;81;22398;-57
2022/05/18 05:34:44;;;;;;;231.77;128.10;;;;;;;22.66;39.15;99572.66;1748896;81;21020;-56
2022/05/18 05:37:11;;;;;;;213.13;119.60;;;;;;;22.76;38.98;99568.56;1748978;81;20979;-60
2022/05/18 05:39:41;;;;;;;209.63;116.93;;;;;;;22.84;38.68;99573.80;1737786;81;21524;-54
2022/05/18 05:42:09;;;;;;;224.43;121.07;;;;;;;23.04;38.17;99566.22;1749537;81;20923;-55
2022/05/18 05:44:37;;;;;;;223.40;121.13;;;;;;;22.89;38.07;99568.46;1748663;81;21479;-56
2022/05/18 05:47:04;;;;;;;192.83;108.93;;;;;;;22.90;38.25;99571.36;1749016;81;21077;-57
2022/05/18 05:49:33;;;;;;;179.80;101.93;;;;;;;22.82;38.34;99579.95;1749484;81;21109;-55
2022/05/18 05:52:00;;;;;;;168.83;97.23;;;;;;;22.86;37.94;99590.81;1749405;81;21033;-55
2022/05/18 05:54:27;;;;;;;163.87;91.87;;;;;;;22.70;38.12;99597.59;1748896;81;20911;-64
2022/05/18 05:56:55;;;;;;;143.60;82.07;;;;;;;22.82;38.08;99602.00;1748963;81;21789;-55
2022/05/18 05:59:23;;;;;;;132.30;74.40;;;;;;;22.83;37.93;99600.13;1748229;81;20997;-57
2022/05/18 06:01:51;;;;;;;130.20;71.07;;;;;;;22.87;37.74;99591.85;1749119;81;21399;-55
2022/05/18 06:04:18;;;;;;;91.40;54.17;;;;;;;22.62;37.80;99592.89;1749203;81;21445;-55
2022/05/18 06:06:46;;;;;;;86.37;51.60;;;;;;;22.77;37.29;99594.09;1749037;81;21088;-56
2022/05/18 06:09:14;;;;;;;78.20;46.13;;;;;;;22.90;36.99;99590.51;1748686;81;21175;-59
2022/05/18 06:11:42;;;;;;;67.63;42.70;;;;;;;22.64;37.00;99592.60;1743817;81;21092;-55
2022/05/18 06:14:10;;;;;;;65.07;37.30;;;;;;;22.70;35.97;99592.83;1749804;81;20989;-55
2022/05/18 06:16:38;;;;;;;59.77;35.53;;;;;;;22.72;35.92;99595.98;1748771;81;21491;-55
2022/05/18 06:19:06;;;;;;;54.60;33.73;;;;;;;22.71;35.46;99606.36;1749712;81;21010;-64
2022/05/18 06:21:33;;;;;;;53.17;32.67;;;;;;;22.69;36.02;99609.30;1749082;81;21073;-56
2022/05/18 06:24:00;;;;;;;45.40;27.90;;;;;;;22.82;35.53;99605.98;1749293;81;22237;-55
2022/05/18 06:26:28;;;;;;;47.73;27.53;;;;;;;22.90;35.73;99607.78;1748502;81;21053;-56
2022/05/18 06:28:55;;;;;;;36.43;23.73;;;;;;;22.91;35.75;99614.17;1748819;81;21045;-56
2022/05/18 06:31:22;;;;;;;31.93;20.57;;;;;;;22.77;35.00;99611.36;1748489;81;21104;-56
2022/05/18 06:33:49;;;;;;;31.23;19.77;;;;;;;22.77;35.01;99619.87;1748952;81;21342;-55
2022/05/18 06:36:18;;;;;;;32.90;18.60;;;;;;;22.81;35.03;99623.55;1748686;81;20970;-57
2022/05/18 06:38:46;;;;;;;28.70;16.87;;;;;;;22.62;35.05;99626.09;1749268;81;20969;-55
2022/05/18 06:41:22;;;;;;;21.40;13.83;;;;;;;22.95;34.51;99631.14;1748921;81;20979;-55
2022/05/18 06:44:00;;;;;;;24.90;15.70;;;;;;;22.88;33.94;99626.68;1739614;81;20983;-56
2022/05/18 06:46:29;;;;;;;24.70;14.90;;;;;;;22.82;34.53;99625.91;1748939;81;21860;-55
2022/05/18 06:48:57;;;;;;;23.47;12.70;;;;;;;23.02;35.32;99640.91;1748940;81;20975;-64
2022/05/18 06:51:26;;;;;;;22.07;11.93;;;;;;;23.12;34.99;99633.92;1748863;81;21088;-64
2022/05/18 06:53:55;;;;;;;21.90;11.93;;;;;;;23.04;34.96;99633.45;1749567;81;21045;-57
2022/05/18 06:56:25;;;;;;;22.83;11.93;;;;;;;23.03;35.67;99641.70;1749262;81;21021;-55
2022/05/18 06:58:52;;;;;;;21.20;11.90;;;;;;;22.96;34.94;99638.59;1749713;81;21232;-63
2022/05/18 07:01:19;;;;;;;17.30;9.70;;;;;;;23.14;34.92;99641.86;1748902;81;21013;-55
2022/05/18 07:03:47;;;;;;;17.07;9.47;;;;;;;23.32;34.55;99640.35;1749408;81;21189;-55
2022/05/18 07:06:20;;;;;;;15.53;8.53;;;;;;;23.39;34.13;99643.47;1749374;81;21025;-55
2022/05/18 07:08:48;;;;;;;14.27;8.07;;;;;;;23.27;33.85;99641.20;1749130;81;21480;-59
2022/05/18 07:11:16;;;;;;;13.77;8.13;;;;;;;23.12;34.29;99651.20;1748296;81;21255;-56
2022/05/18 07:13:46;;;;;;;12.83;7.60;;;;;;;23.08;34.13;99658.16;1749982;81;21801;-54
2022/05/18 07:16:15;;;;;;;12.90;7.43;;;;;;;22.98;33.76;99655.83;1749960;81;21048;-57
2022/05/18 07:18:42;;;;;;;12.00;6.93;;;;;;;23.12;33.14;99659.19;1738906;81;21433;-57
2022/05/18 07:21:09;;;;;;;11.80;5.87;;;;;;;23.02;33.58;99663.50;1748965;81;21448;-58
2022/05/18 07:23:38;;;;;;;15.90;6.37;;;;;;;23.08;33.33;99657.62;1737656;81;21687;-55
2022/05/18 07:26:05;;;;;;;12.70;6.37;;;;;;;23.09;33.73;99660.53;1749244;81;21311;-55
2022/05/18 07:28:32;;;;;;;9.90;5.67;;;;;;;23.05;33.53;99660.30;1749527;81;21034;-56
2022/05/18 07:30:59;;;;;;;11.13;5.67;;;;;;;23.04;33.73;99653.94;1749961;81;20981;-55
2022/05/18 07:33:28;;;;;;;9.93;5.50;;;;;;;22.96;33.79;99665.18;1748925;81;21073;-55
2022/05/18 07:35:55;;;;;;;8.27;4.60;;;;;;;22.79;34.58;99665.00;1749201;81;21107;-54
2022/05/18 07:38:24;;;;;;;12.73;5.60;;;;;;;22.87;34.08;99657.50;1749511;81;20971;-54
2022/05/18 07:40:52;;;;;;;11.50;4.93;;;;;;;22.94;34.12;99663.32;1749551;81;20962;-62
2022/05/18 07:43:19;;;;;;;9.43;4.03;;;;;;;22.99;33.99;99658.73;1748959;81;21560;-63
2022/05/18 07:45:47;;;;;;;10.13;4.50;;;;;;;22.77;34.68;99662.38;1749538;81;21063;-54
2022/05/18 07:48:14;;;;;;;10.30;4.67;;;;;;;22.77;34.64;99665.04;1749769;81;22314;-55
2022/05/18 07:50:42;;;;;;;10.03;4.83;;;;;;;22.98;36.06;99657.16;1750211;81;21018;-54
2022/05/18 07:53:10;;;;;;;8.53;4.27;;;;;;;23.18;35.45;99654.84;1749951;81;21045;-62
2022/05/18 07:55:37;;;;;;;9.33;4.20;;;;;;;22.98;35.76;99661.15;1748761;81;21028;-54
2022/05/18 07:58:09;;;;;;;8.67;4.87;;;;;;;22.87;35.35;99658.29;1750184;81;20975;-55
2022/05/18 08:00:37;;;;;;;6.67;4.27;;;;;;;22.89;36.08;99656.16;1749618;81;21241;-55
2022/05/18 08:03:04;;;;;;;7.77;3.30;;;;;;;23.11;35.39;99657.58;1749655;81;20966;-63
2022/05/18 08:05:33;;;;;;;7.23;3.53;;;;;;;23.30;34.76;99654.48;1750232;81;21109;-54
2022/05/18 08:08:07;;;;;;;7.90;3.77;;;;;;;23.13;35.59;99652.24;1748961;81;20978;-55
2022/05/18 08:16:07;;;;;;;7.80;4.30;;;;;;;23.10;34.42;99648.02;1750053;81;20969;-55
2022/05/18 08:18:34;;;;;;;6.00;3.47;;;;;;;23.05;34.79;99652.31;1748896;81;20953;-63
2022/05/18 08:21:03;;;;;;;9.57;3.90;;;;;;;23.05;34.52;99653.64;1749390;81;21012;-56
2022/05/18 08:23:30;;;;;;;7.57;3.43;;;;;;;23.15;34.91;99651.44;1749772;81;20967;-55
2022/05/18 08:25:58;;;;;;;9.30;4.10;;;;;;;23.32;34.46;99658.97;1749024;81;22169;-58
2022/05/18 08:28:26;;;;;;;11.03;3.73;;;;;;;23.37;33.85;99660.78;1749242;81;21543;-61
2022/05/18 08:30:55;;;;;;;9.27;3.97;;;;;;;23.42;33.71;99660.20;1749086;81;21016;-57
2022/05/18 08:33:22;;;;;;;7.50;3.70;;;;;;;23.43;33.71;99657.00;1749207;81;21019;-55
2022/05/18 08:35:50;;;;;;;8.83;3.87;;;;;;;23.32;33.76;99657.64;1749636;81;20859;-56
2022/05/18 08:38:19;;;;;;;9.17;4.20;;;;;;;23.31;34.32;99657.39;1749537;81;21150;-64
2022/05/18 08:40:51;;;;;;;9.67;4.50;;;;;;;23.27;34.05;99658.48;1748438;81;20938;-57
2022/05/18 08:43:32;;;;;;;9.17;4.33;;;;;;;23.18;35.17;99656.71;1749121;81;21080;-55
2022/05/18 08:46:17;;;;;;;9.60;4.67;;;;;;;23.35;35.82;99657.08;1749498;81;20911;-55
2022/05/18 08:49:14;;;;;;;8.00;4.47;;;;;;;23.43;35.51;99655.12;1748639;81;21099;-56
2022/05/18 08:52:05;;;;;;;9.80;5.10;;;;;;;23.41;35.41;99656.48;1724252;81;21333;-57
2022/05/18 08:55:04;;;;;;;13.07;5.60;;;;;;;23.19;34.88;99656.98;1747425;81;20995;-55
2022/05/18 08:57:38;;;;;;;8.97;4.60;;;;;;;23.18;35.82;99652.73;1749505;81;21511;-57
2022/05/18 09:00:21;;;;;;;10.03;5.47;;;;;;;23.18;36.14;99652.73;1749738;81;21424;-55
2022/05/18 09:02:53;;;;;;;11.30;6.73;;;;;;;23.06;36.00;99661.87;1739511;81;20875;-64
2022/05/18 09:05:26;;;;;;;;;;;;;;;23.09;35.68;99655.75;1708507;81;21146;-57
2022/05/18 09:08:19;;;;;;;9.80;6.20;;;;;;;23.00;35.23;99653.70;1749947;81;20135;-56
2022/05/18 09:10:59;;;;;;;13.73;6.97;;;;;;;22.79;35.98;99651.71;1750378;81;20981;-55
2022/05/18 09:13:26;;;;;;;10.37;6.67;;;;;;;22.88;36.01;99654.58;1749872;81;21053;-56
2022/05/18 09:16:32;;;;;;;17.87;6.57;;;;;;;22.92;36.80;99656.15;1750428;81;20887;-56
2022/05/18 09:19:31;;;;;;;10.57;6.10;;;;;;;22.83;37.22;99655.94;1742262;81;21494;-56
2022/05/18 09:22:52;;;;;;;11.80;7.00;;;;;;;22.78;37.32;99655.45;1749175;81;21391;-55
2022/05/18 09:25:47;;;;;;;12.03;6.33;;;;;;;22.82;37.40;99657.02;1750981;81;21539;-56
2022/05/18 09:28:49;;;;;;;12.93;6.87;;;;;;;22.81;37.98;99667.39;1750544;81;21025;-56
2022/05/18 09:31:47;;;;;;;10.23;6.57;;;;;;;22.76;37.75;99657.58;1750166;81;21017;-56
2022/05/18 09:34:29;;;;;;;14.07;6.63;;;;;;;22.85;37.17;99657.00;1749940;81;21374;-56
2022/05/18 09:37:24;;;;;;;11.47;6.47;;;;;;;22.92;37.81;99655.64;1741330;81;21052;-56
2022/05/18 09:40:21;;;;;;;12.93;6.80;;;;;;;22.94;37.65;99654.81;1749986;81;21764;-55
2022/05/18 09:42:56;;;;;;;8.23;5.50;;;;;;;22.94;38.49;99656.14;1746485;81;20962;-58
2022/05/18 09:45:25;;;;;;;10.33;6.23;;;;;;;22.88;37.78;99663.06;1744404;81;21057;-55
2022/05/18 09:48:06;;;;;;;13.43;6.17;;;;;;;22.82;36.79;99666.31;1749774;81;21905;-55
2022/05/18 09:50:35;;;;;;;13.70;6.87;;;;;;;22.88;37.45;99667.05;1747728;81;21129;-61
2022/05/18 09:53:03;;;;;;;12.53;6.67;;;;;;;22.70;38.80;99665.89;1753915;81;21409;-55
2022/05/18 09:55:30;;;;;;;9.87;6.23;;;;;;;22.33;38.83;99664.53;1750362;81;21021;-56
2022/05/18 09:58:12;;;;;;;10.50;6.80;;;;;;;22.33;38.73;99669.84;1749847;81;20923;-58
2022/05/18 10:00:39;;;;;;;8.80;6.17;;;;;;;22.23;39.31;99673.87;1737286;81;21227;-59
2022/05/18 10:08:57;;;;;;;9.17;5.93;;;;;;;21.99;40.21;99676.37;1741377;81;21496;-58
2022/05/18 10:11:31;;;;;;;11.07;6.77;;;;;;;21.94;40.90;99677.72;1748742;81;20890;-61
2022/05/18 10:14:03;;;;;;;9.27;6.57;;;;;;;21.83;41.05;99671.66;1749309;81;21204;-59
2022/05/18 10:16:43;;;;;;;9.77;6.07;;;;;;;21.66;41.15;99673.30;1748632;81;21079;-58
2022/05/18 10:19:25;;;;;;;9.93;6.80;;;;;;;21.57;42.34;99670.95;1748995;81;21022;-59
2022/05/18 10:21:55;;;;;;;;;;;;;;;21.61;42.54;99674.65;1751489;81;21047;-57
2022/05/18 10:24:30;;;;;;;9.60;6.97;;;;;;;21.74;40.86;99672.73;1749607;81;20274;-56
2022/05/18 10:27:21;;;;;;;11.80;7.60;;;;;;;21.77;40.98;99669.55;1731369;81;21246;-57
2022/05/18 10:30:31;;;;;;;9.97;7.37;;;;;;;21.69;41.59;99669.32;1749052;81;21610;-57
2022/05/18 10:33:10;;;;;;;9.55;7.62;;;;;;;21.81;41.56;99669.80;1748909;81;21017;-60
2022/05/18 10:35:50;;;;;;;11.33;7.57;;;;;;;21.83;41.97;99667.69;1724945;81;21029;-58
2022/05/18 10:38:32;;;;;;;10.97;7.80;;;;;;;21.85;42.25;99663.67;1749474;81;20970;-56
2022/05/18 10:41:13;;;;;;;11.13;7.00;;;;;;;21.91;41.53;99656.50;1749223;81;21140;-57
2022/05/18 10:43:48;;;;;;;11.57;8.03;;;;;;;21.79;40.69;99660.00;1737210;81;21762;-57
2022/05/18 10:46:21;;;;;;;10.07;7.13;;;;;;;21.53;41.03;99662.73;1748933;81;21093;-57
2022/05/18 10:48:56;;;;;;;11.17;7.83;;;;;;;21.44;41.35;99667.52;1732733;81;21542;-56
2022/05/18 10:51:45;;;;;;;9.40;7.23;;;;;;;21.43;40.98;99668.06;1748268;81;21946;-56
2022/05/18 10:54:26;;;;;;;8.93;6.40;;;;;;;21.31;40.67;99666.20;1752915;80;21208;-57
2022/05/18 10:57:10;;;;;;;9.53;6.28;;;;;;;21.46;41.28;99674.16;1749590;81;21352;-57
2022/05/18 10:59:51;;;;;;;9.93;6.07;;;;;;;21.46;41.66;99672.04;1747701;81;21029;-55
2022/05/18 11:02:32;;;;;;;13.68;7.17;;;;;;;21.47;41.75;99671.76;1748514;81;21689;-56
2022/05/18 11:05:04;;;;;;;10.20;5.62;;;;;;;21.52;41.85;99673.09;1749737;81;21014;-60
2022/05/18 11:07:32;;;;;;;8.33;5.60;;;;;;;21.60;41.76;99668.55;1747953;81;21413;-60
2022/05/18 11:09:59;;;;;;;8.93;5.57;;;;;;;21.52;41.30;99669.65;1746967;82;21041;-55
2022/05/18 11:13:08;;;;;;;9.73;6.40;;;;;;;21.64;42.26;99674.66;1747388;82;21043;-56
2022/05/18 11:15:47;;;;;;;11.93;6.60;;;;;;;21.64;42.26;99674.66;1746885;81;21367;-55
2022/05/18 11:18:31;;;;;;;12.83;6.63;;;;;;;21.74;42.40;99674.59;1747754;82;20979;-57
2022/05/18 11:21:35;;;;;;;9.07;5.40;;;;;;;21.66;41.97;99671.97;1747378;81;21295;-56
2022/05/18 11:24:30;;;;;;;12.33;6.20;;;;;;;21.59;41.52;99668.30;1747577;82;20911;-57
2022/05/18 11:27:21;;;;;;;11.10;6.57;;;;;;;21.64;41.51;99672.00;1740172;82;21491;-55
2022/05/18 11:30:30;;;;;;;11.13;6.17;;;;;;;21.56;41.75;99668.05;1747456;82;21426;-55
2022/05/18 11:33:11;;;;;;;11.13;5.97;;;;;;;21.40;41.37;99668.59;1746545;82;21038;-56
2022/05/18 11:36:02;;;;;;;11.97;5.85;;;;;;;21.49;40.95;99674.95;1745435;82;21267;-54
2022/05/18 11:39:00;;;;;;;11.60;6.00;;;;;;;21.54;40.59;99667.50;1747500;81;21487;-59
2022/05/18 11:41:55;;;;;;;10.83;5.47;;;;;;;21.08;40.75;99672.33;1748440;81;20915;-55
2022/05/18 11:44:36;;;;;;;9.67;5.77;;;;;;;21.16;40.72;99662.25;1747805;81;21763;-54
2022/05/18 11:47:25;;;;;;;9.63;5.35;;;;;;;21.14;40.78;99673.13;1748265;81;21041;-54
2022/05/18 11:50:18;;;;;;;11.03;5.57;;;;;;;21.20;40.93;99670.72;1729504;82;21257;-54
2022/05/18 11:53:17;;;;;;;9.50;5.33;;;;;;;21.26;41.05;99668.34;1704444;82;21090;-61
2022/05/18 11:55:52;;;;;;;15.40;6.03;;;;;;;21.28;41.42;99672.03;1691630;82;21042;-55
2022/05/18 11:59:09;;;;;;;9.97;6.27;;;;;;;21.23;41.12;99673.37;1736271;82;20887;-57
2022/05/18 12:01:52;;;;;;;7.03;4.90;;;;;;;21.37;40.79;99677.11;1710535;82;21093;-55
2022/05/18 12:04:42;;;;;;;10.03;5.20;;;;;;;21.52;41.46;99665.67;1631074;86;21587;-54
2022/05/18 12:07:29;;;;;;;8.13;4.77;;;;;;;21.60;41.53;99668.55;1740190;82;21014;-59